Wan Hai 501 — S6AS7 — position and weather

sailwx.info

Track history (hours):
 
Tides and Currents Weather Stations Pressure Air Temp Water Temp Dewpoint Dewpoint Depression Visibility Wind Speed Wind Dir Waves Ship Positions

Wan Hai 501

Last reported at 2015-Jan-20 11:20 UTC. Time now 2015-Jan-27 12:28 UTC.
Position N 01°55' E 102°22'.

Length 268 m; draft 10.8 m.

Type: Cargo ship. MMSI: 563382000.

Date/timePositionNaut miles runAvg speedWind from/ knotsBaromVisibWave heightAir tempDewpointWater temp
2015-Jan-20 11:20N 01°55' E 102°22'1418.3
2015-Jan-20 10:33N 01°48' E 102°34'7518.5
2015-Jan-20 06:30N 01°13' E 103°40'7 6.6
2015-Jan-20 05:24N 01°17' E 103°46'0 0.0
2015-Jan-20 01:12N 01°17' E 103°46'0 0.0
2015-Jan-20 00:06N 01°17' E 103°46'0 0.0
2015-Jan-19 23:06N 01°17' E 103°46'0 0.0
2015-Jan-19 21:15N 01°17' E 103°46'0 0.0
2015-Jan-19 20:33N 01°17' E 103°46'0 0.0
2015-Jan-19 19:33N 01°17' E 103°46'0 0.0
2015-Jan-19 18:33N 01°17' E 103°46'1 0.9
2015-Jan-19 17:32N 01°16' E 103°45'9 8.9
2015-Jan-19 16:33N 01°14' E 103°54'2 2.1
2015-Jan-19 15:33N 01°16' E 103°54'0 0.0
2015-Jan-19 14:18N 01°16' E 103°54'0 0.0
2015-Jan-19 13:30N 01°16' E 103°54'0 0.0
2015-Jan-19 12:09N 01°16' E 103°54'0 0.0
2015-Jan-19 11:24N 01°16' E 103°54'0 0.0
2015-Jan-19 10:27N 01°16' E 103°54'0 0.1
2015-Jan-19 09:30N 01°16' E 103°54'0 0.1
2015-Jan-19 08:30N 01°16' E 103°55'0 0.1
2015-Jan-19 07:21N 01°16' E 103°55'0 0.0
2015-Jan-19 06:30N 01°16' E 103°55'0 0.0
2015-Jan-19 05:24N 01°16' E 103°55'0 0.1
2015-Jan-19 04:30N 01°16' E 103°55'0 0.2
2015-Jan-19 03:24N 01°16' E 103°55'0 0.1
2015-Jan-19 02:30N 01°16' E 103°54'1 0.6
2015-Jan-19 01:33N 01°16' E 103°54'2 2.2
2015-Jan-19 00:33N 01°15' E 103°57'9 8.9
2015-Jan-18 23:33N 01°16' E 104°05'1212.2
2015-Jan-18 22:33N 01°18' E 104°17'  
2015-Jan-15 08:16N 21°52' E 113°56'1315.6
2015-Jan-15 07:27N 22°01' E 114°06'12 9.9
2015-Jan-15 06:11N 22°12' E 114°10'711.9
2015-Jan-15 05:33N 22°18' E 114°06'3 0.5
2015-Jan-15 00:26N 22°20' E 114°07'0 0.0
2015-Jan-14 23:23N 22°20' E 114°07'0 0.0
2015-Jan-14 22:32N 22°20' E 114°07'0 0.0
2015-Jan-14 21:32N 22°20' E 114°07'0 0.0
2015-Jan-14 20:32N 22°20' E 114°07'0 0.0
2015-Jan-14 19:32N 22°20' E 114°07'0 0.2
2015-Jan-14 18:33N 22°20' E 114°07'7 7.1
2015-Jan-14 17:31N 22°13' E 114°10'10 8.6
2015-Jan-14 16:24N 22°05' E 114°16'0 0.0
2015-Jan-14 15:33N 22°05' E 114°16'0 0.0
2015-Jan-14 14:15N 22°05' E 114°16'0 0.0
2015-Jan-14 13:12N 22°05' E 114°16'0 0.0
2015-Jan-14 12:30N 22°05' E 114°16'0 0.0
2015-Jan-14 08:30N 22°05' E 114°15'0 0.0
2015-Jan-14 05:33N 22°05' E 114°15'0 0.0
2015-Jan-14 01:12N 22°05' E 114°15'0 0.1
2015-Jan-14 00:33N 22°05' E 114°16'0 0.0
2015-Jan-13 23:27N 22°05' E 114°16'0 0.0
2015-Jan-13 22:33N 22°05' E 114°16'0 0.0
2015-Jan-13 21:33N 22°05' E 114°16'0 0.0
2015-Jan-13 20:33N 22°05' E 114°16'0 0.0
2015-Jan-13 19:33N 22°05' E 114°16'0 0.0
2015-Jan-13 18:33N 22°05' E 114°16'0 0.1
2015-Jan-13 17:33N 22°05' E 114°15'0 0.1
2015-Jan-13 16:33N 22°05' E 114°16'0 0.1
2015-Jan-13 15:33N 22°05' E 114°15'0 0.1
2015-Jan-13 14:33N 22°05' E 114°16'0 0.1
2015-Jan-13 13:33N 22°05' E 114°15'0 0.0
2015-Jan-13 12:33N 22°05' E 114°15'5 4.7
2015-Jan-13 11:33N 22°05' E 114°20'1210.9
2015-Jan-13 10:29N 22°08' E 114°33'14716.1
2015-Jan-13 01:21N 22°56' E 117°03'6316.5
2015-Jan-12 21:32N 23°33' E 117°59'1717.1
2015-Jan-12 20:33N 23°44' E 118°13'1716.9
2015-Jan-12 19:33N 23°56' E 118°26'3316.4
2015-Jan-12 17:32N 24°18' E 118°53'2216.4
2015-Jan-12 16:13N 24°32' E 119°11'33815.6
2015-Jan-11 18:31N 29°21' E 122°28'1514.6
2015-Jan-11 17:28N 29°36' E 122°30'9 9.5
2015-Jan-11 16:34N 29°43' E 122°23'10 9.7
2015-Jan-11 15:33N 29°49' E 122°14'10 9.8
2015-Jan-11 14:33N 29°47' E 122°03'2 1.7
2015-Jan-11 13:10N 29°46' E 122°00'0 0.0
2015-Jan-11 12:22N 29°46' E 122°00'0 0.0
2015-Jan-11 11:28N 29°46' E 122°00'0 0.0
2015-Jan-11 10:28N 29°46' E 122°00'0 0.0
2015-Jan-11 09:22N 29°46' E 122°00'0 0.0
2015-Jan-11 08:28N 29°46' E 122°00'0 0.0
2015-Jan-11 07:28N 29°46' E 122°00'0 0.0
2015-Jan-11 06:28N 29°46' E 122°00'0 0.0
2015-Jan-11 05:28N 29°46' E 122°00'0 0.0
2015-Jan-11 04:28N 29°46' E 122°00'0 0.0
2015-Jan-11 03:28N 29°46' E 122°00'1 1.5
2015-Jan-11 02:33N 29°47' E 122°02'10 9.8
2015-Jan-11 01:33N 29°51' E 122°12'1110.6
2015-Jan-11 00:33N 29°45' E 122°22'4 1.0
2015-Jan-10 20:13N 29°45' E 122°27'0 0.1
2015-Jan-10 18:25N 29°45' E 122°27'0 0.1
2015-Jan-10 15:25N 29°45' E 122°27'0 0.1
2015-Jan-10 12:25N 29°45' E 122°27'  
Track history (hours):
 
Tides and Currents Weather Stations Pressure Air Temp Water Temp Dewpoint Dewpoint Depression Visibility Wind Speed Wind Dir Waves Ship Positions

Wan Hai 501

Last reported at 2015-Jan-20 11:20 UTC. Time now 2015-Jan-27 12:28 UTC.
Position N 01°55' E 102°22'.

Length 268 m; draft 10.8 m.

Type: Cargo ship. MMSI: 563382000.

Date/timePositionNaut miles runAvg speedWind from/ knotsBaromVisibWave heightAir tempDewpointWater temp
2015-Jan-20 11:20N 01°55' E 102°22'1418.3
2015-Jan-20 10:33N 01°48' E 102°34'7518.5
2015-Jan-20 06:30N 01°13' E 103°40'7 6.6
2015-Jan-20 05:24N 01°17' E 103°46'0 0.0
2015-Jan-20 01:12N 01°17' E 103°46'0 0.0
2015-Jan-20 00:06N 01°17' E 103°46'0 0.0
2015-Jan-19 23:06N 01°17' E 103°46'0 0.0
2015-Jan-19 21:15N 01°17' E 103°46'0 0.0
2015-Jan-19 20:33N 01°17' E 103°46'0 0.0
2015-Jan-19 19:33N 01°17' E 103°46'0 0.0
2015-Jan-19 18:33N 01°17' E 103°46'1 0.9
2015-Jan-19 17:32N 01°16' E 103°45'9 8.9
2015-Jan-19 16:33N 01°14' E 103°54'2 2.1
2015-Jan-19 15:33N 01°16' E 103°54'0 0.0
2015-Jan-19 14:18N 01°16' E 103°54'0 0.0
2015-Jan-19 13:30N 01°16' E 103°54'0 0.0
2015-Jan-19 12:09N 01°16' E 103°54'0 0.0
2015-Jan-19 11:24N 01°16' E 103°54'0 0.0
2015-Jan-19 10:27N 01°16' E 103°54'0 0.1
2015-Jan-19 09:30N 01°16' E 103°54'0 0.1
2015-Jan-19 08:30N 01°16' E 103°55'0 0.1
2015-Jan-19 07:21N 01°16' E 103°55'0 0.0
2015-Jan-19 06:30N 01°16' E 103°55'0 0.0
2015-Jan-19 05:24N 01°16' E 103°55'0 0.1
2015-Jan-19 04:30N 01°16' E 103°55'0 0.2
2015-Jan-19 03:24N 01°16' E 103°55'0 0.1
2015-Jan-19 02:30N 01°16' E 103°54'1 0.6
2015-Jan-19 01:33N 01°16' E 103°54'2 2.2
2015-Jan-19 00:33N 01°15' E 103°57'9 8.9
2015-Jan-18 23:33N 01°16' E 104°05'1212.2
2015-Jan-18 22:33N 01°18' E 104°17'  
2015-Jan-15 08:16N 21°52' E 113°56'1315.6
2015-Jan-15 07:27N 22°01' E 114°06'12 9.9
2015-Jan-15 06:11N 22°12' E 114°10'711.9
2015-Jan-15 05:33N 22°18' E 114°06'3 0.5
2015-Jan-15 00:26N 22°20' E 114°07'0 0.0
2015-Jan-14 23:23N 22°20' E 114°07'0 0.0
2015-Jan-14 22:32N 22°20' E 114°07'0 0.0
2015-Jan-14 21:32N 22°20' E 114°07'0 0.0
2015-Jan-14 20:32N 22°20' E 114°07'0 0.0
2015-Jan-14 19:32N 22°20' E 114°07'0 0.2
2015-Jan-14 18:33N 22°20' E 114°07'7 7.1
2015-Jan-14 17:31N 22°13' E 114°10'10 8.6
2015-Jan-14 16:24N 22°05' E 114°16'0 0.0
2015-Jan-14 15:33N 22°05' E 114°16'0 0.0
2015-Jan-14 14:15N 22°05' E 114°16'0 0.0
2015-Jan-14 13:12N 22°05' E 114°16'0 0.0
2015-Jan-14 12:30N 22°05' E 114°16'0 0.0
2015-Jan-14 08:30N 22°05' E 114°15'0 0.0
2015-Jan-14 05:33N 22°05' E 114°15'0 0.0
2015-Jan-14 01:12N 22°05' E 114°15'0 0.1
2015-Jan-14 00:33N 22°05' E 114°16'0 0.0
2015-Jan-13 23:27N 22°05' E 114°16'0 0.0
2015-Jan-13 22:33N 22°05' E 114°16'0 0.0
2015-Jan-13 21:33N 22°05' E 114°16'0 0.0
2015-Jan-13 20:33N 22°05' E 114°16'0 0.0
2015-Jan-13 19:33N 22°05' E 114°16'0 0.0
2015-Jan-13 18:33N 22°05' E 114°16'0 0.1
2015-Jan-13 17:33N 22°05' E 114°15'0 0.1
2015-Jan-13 16:33N 22°05' E 114°16'0 0.1
2015-Jan-13 15:33N 22°05' E 114°15'0 0.1
2015-Jan-13 14:33N 22°05' E 114°16'0 0.1
2015-Jan-13 13:33N 22°05' E 114°15'0 0.0
2015-Jan-13 12:33N 22°05' E 114°15'5 4.7
2015-Jan-13 11:33N 22°05' E 114°20'1210.9
2015-Jan-13 10:29N 22°08' E 114°33'14716.1
2015-Jan-13 01:21N 22°56' E 117°03'6316.5
2015-Jan-12 21:32N 23°33' E 117°59'1717.1
2015-Jan-12 20:33N 23°44' E 118°13'1716.9
2015-Jan-12 19:33N 23°56' E 118°26'3316.4
2015-Jan-12 17:32N 24°18' E 118°53'2216.4
2015-Jan-12 16:13N 24°32' E 119°11'33815.6
2015-Jan-11 18:31N 29°21' E 122°28'1514.6
2015-Jan-11 17:28N 29°36' E 122°30'9 9.5
2015-Jan-11 16:34N 29°43' E 122°23'10 9.7
2015-Jan-11 15:33N 29°49' E 122°14'10 9.8
2015-Jan-11 14:33N 29°47' E 122°03'2 1.7
2015-Jan-11 13:10N 29°46' E 122°00'0 0.0
2015-Jan-11 12:22N 29°46' E 122°00'0 0.0
2015-Jan-11 11:28N 29°46' E 122°00'0 0.0
2015-Jan-11 10:28N 29°46' E 122°00'0 0.0
2015-Jan-11 09:22N 29°46' E 122°00'0 0.0
2015-Jan-11 08:28N 29°46' E 122°00'0 0.0
2015-Jan-11 07:28N 29°46' E 122°00'0 0.0
2015-Jan-11 06:28N 29°46' E 122°00'0 0.0
2015-Jan-11 05:28N 29°46' E 122°00'0 0.0
2015-Jan-11 04:28N 29°46' E 122°00'0 0.0
2015-Jan-11 03:28N 29°46' E 122°00'1 1.5
2015-Jan-11 02:33N 29°47' E 122°02'10 9.8
2015-Jan-11 01:33N 29°51' E 122°12'1110.6
2015-Jan-11 00:33N 29°45' E 122°22'4 1.0
2015-Jan-10 20:13N 29°45' E 122°27'0 0.1
2015-Jan-10 18:25N 29°45' E 122°27'0 0.1
2015-Jan-10 15:25N 29°45' E 122°27'0 0.1
2015-Jan-10 12:25N 29°45' E 122°27'  

Dump ship's entire track history